sensor_id;sensor_type;location;lat;lon;timestamp;P1;durP1;ratioP1;P2;durP2;ratioP2
54575;SDS011;40472;53.486;14.542;2022-11-25T00:00:52;85.20;;;19.70;;
54575;SDS011;40472;53.486;14.542;2022-11-25T00:03:18;79.45;;;22.30;;
54575;SDS011;40472;53.486;14.542;2022-11-25T00:05:43;78.13;;;18.27;;
54575;SDS011;40472;53.486;14.542;2022-11-25T00:08:09;84.32;;;21.95;;
54575;SDS011;40472;53.486;14.542;2022-11-25T00:10:35;89.35;;;21.27;;
54575;SDS011;40472;53.486;14.542;2022-11-25T00:13:04;82.38;;;21.27;;
54575;SDS011;40472;53.486;14.542;2022-11-25T00:15:29;70.93;;;20.00;;
54575;SDS011;40472;53.486;14.542;2022-11-25T00:17:58;76.85;;;20.73;;
54575;SDS011;40472;53.486;14.542;2022-11-25T00:20:26;77.30;;;21.00;;
54575;SDS011;40472;53.486;14.542;2022-11-25T00:22:52;79.40;;;21.40;;
54575;SDS011;40472;53.486;14.542;2022-11-25T00:25:18;90.85;;;22.35;;
54575;SDS011;40472;53.486;14.542;2022-11-25T00:27:43;85.93;;;22.60;;
54575;SDS011;40472;53.486;14.542;2022-11-25T00:30:09;78.57;;;22.15;;
54575;SDS011;40472;53.486;14.542;2022-11-25T00:32:35;84.63;;;21.63;;
54575;SDS011;40472;53.486;14.542;2022-11-25T00:35:01;105.95;;;24.83;;
54575;SDS011;40472;53.486;14.542;2022-11-25T00:37:27;108.22;;;24.70;;
54575;SDS011;40472;53.486;14.542;2022-11-25T00:39:53;87.03;;;22.63;;
54575;SDS011;40472;53.486;14.542;2022-11-25T00:42:18;97.55;;;23.95;;
54575;SDS011;40472;53.486;14.542;2022-11-25T00:45:03;80.65;;;21.45;;
54575;SDS011;40472;53.486;14.542;2022-11-25T00:47:29;93.13;;;22.13;;
54575;SDS011;40472;53.486;14.542;2022-11-25T00:49:55;98.10;;;23.90;;
54575;SDS011;40472;53.486;14.542;2022-11-25T00:52:22;92.78;;;22.38;;
54575;SDS011;40472;53.486;14.542;2022-11-25T00:54:49;101.18;;;24.48;;
54575;SDS011;40472;53.486;14.542;2022-11-25T00:57:16;80.93;;;23.98;;
54575;SDS011;40472;53.486;14.542;2022-11-25T00:59:44;101.05;;;25.80;;
54575;SDS011;40472;53.486;14.542;2022-11-25T01:02:10;86.70;;;22.40;;
54575;SDS011;40472;53.486;14.542;2022-11-25T01:04:40;87.05;;;22.25;;
54575;SDS011;40472;53.486;14.542;2022-11-25T01:07:14;112.43;;;24.90;;
54575;SDS011;40472;53.486;14.542;2022-11-25T01:09:40;119.53;;;25.27;;
54575;SDS011;40472;53.486;14.542;2022-11-25T01:12:05;98.63;;;25.95;;
54575;SDS011;40472;53.486;14.542;2022-11-25T01:14:33;111.70;;;25.00;;
54575;SDS011;40472;53.486;14.542;2022-11-25T01:16:59;111.28;;;24.70;;
54575;SDS011;40472;53.486;14.542;2022-11-25T01:19:25;108.15;;;24.20;;
54575;SDS011;40472;53.486;14.542;2022-11-25T01:21:51;110.30;;;24.75;;
54575;SDS011;40472;53.486;14.542;2022-11-25T01:24:23;119.80;;;26.05;;
54575;SDS011;40472;53.486;14.542;2022-11-25T01:26:50;110.82;;;24.40;;
54575;SDS011;40472;53.486;14.542;2022-11-25T01:29:17;115.50;;;25.90;;
54575;SDS011;40472;53.486;14.542;2022-11-25T01:31:44;135.70;;;30.20;;
54575;SDS011;40472;53.486;14.542;2022-11-25T01:34:12;161.18;;;32.08;;
54575;SDS011;40472;53.486;14.542;2022-11-25T01:36:39;133.75;;;28.08;;
54575;SDS011;40472;53.486;14.542;2022-11-25T01:39:05;125.93;;;28.15;;
54575;SDS011;40472;53.486;14.542;2022-11-25T01:41:32;181.23;;;31.17;;
54575;SDS011;40472;53.486;14.542;2022-11-25T01:44:06;125.95;;;27.45;;
54575;SDS011;40472;53.486;14.542;2022-11-25T01:46:48;86.57;;;21.77;;
54575;SDS011;40472;53.486;14.542;2022-11-25T01:57:22;193.85;;;32.60;;
54575;SDS011;40472;53.486;14.542;2022-11-25T01:59:52;115.35;;;25.83;;
54575;SDS011;40472;53.486;14.542;2022-11-25T02:02:21;162.98;;;29.25;;
54575;SDS011;40472;53.486;14.542;2022-11-25T02:04:47;168.02;;;28.77;;
54575;SDS011;40472;53.486;14.542;2022-11-25T02:07:37;196.02;;;28.70;;
54575;SDS011;40472;53.486;14.542;2022-11-25T02:10:08;166.75;;;28.15;;
54575;SDS011;40472;53.486;14.542;2022-11-25T02:12:39;169.57;;;27.55;;
54575;SDS011;40472;53.486;14.542;2022-11-25T02:15:07;174.13;;;28.17;;
54575;SDS011;40472;53.486;14.542;2022-11-25T02:17:38;145.27;;;24.80;;
54575;SDS011;40472;53.486;14.542;2022-11-25T02:20:05;180.07;;;26.52;;
54575;SDS011;40472;53.486;14.542;2022-11-25T02:22:37;191.00;;;24.70;;
54575;SDS011;40472;53.486;14.542;2022-11-25T02:25:23;276.52;;;29.63;;
54575;SDS011;40472;53.486;14.542;2022-11-25T02:28:25;179.88;;;23.42;;
54575;SDS011;40472;53.486;14.542;2022-11-25T02:30:46;272.23;;;26.65;;
54575;SDS011;40472;53.486;14.542;2022-11-25T02:33:12;242.45;;;22.77;;
54575;SDS011;40472;53.486;14.542;2022-11-25T02:35:39;254.10;;;25.30;;
54575;SDS011;40472;53.486;14.542;2022-11-25T02:38:08;195.93;;;21.58;;
54575;SDS011;40472;53.486;14.542;2022-11-25T02:43:13;177.25;;;22.80;;
54575;SDS011;40472;53.486;14.542;2022-11-25T02:45:50;191.05;;;20.05;;
54575;SDS011;40472;53.486;14.542;2022-11-25T02:48:17;134.25;;;20.13;;
54575;SDS011;40472;53.486;14.542;2022-11-25T02:50:43;260.77;;;22.50;;
54575;SDS011;40472;53.486;14.542;2022-11-25T02:53:09;406.85;;;29.35;;
54575;SDS011;40472;53.486;14.542;2022-11-25T02:55:37;213.55;;;21.45;;
54575;SDS011;40472;53.486;14.542;2022-11-25T02:58:03;174.43;;;19.88;;
54575;SDS011;40472;53.486;14.542;2022-11-25T03:00:29;161.82;;;20.05;;
54575;SDS011;40472;53.486;14.542;2022-11-25T03:02:54;243.57;;;20.52;;
54575;SDS011;40472;53.486;14.542;2022-11-25T03:05:21;273.05;;;21.52;;
54575;SDS011;40472;53.486;14.542;2022-11-25T03:07:47;234.55;;;21.30;;
54575;SDS011;40472;53.486;14.542;2022-11-25T03:10:15;192.40;;;21.10;;
54575;SDS011;40472;53.486;14.542;2022-11-25T03:12:42;217.25;;;22.50;;
54575;SDS011;40472;53.486;14.542;2022-11-25T03:15:08;305.33;;;24.25;;
54575;SDS011;40472;53.486;14.542;2022-11-25T03:17:34;234.10;;;21.33;;
54575;SDS011;40472;53.486;14.542;2022-11-25T03:20:00;283.70;;;22.88;;
54575;SDS011;40472;53.486;14.542;2022-11-25T03:22:26;358.10;;;26.40;;
54575;SDS011;40472;53.486;14.542;2022-11-25T03:24:52;259.65;;;22.27;;
54575;SDS011;40472;53.486;14.542;2022-11-25T03:27:20;418.90;;;29.75;;
54575;SDS011;40472;53.486;14.542;2022-11-25T03:29:46;294.35;;;25.45;;
54575;SDS011;40472;53.486;14.542;2022-11-25T03:32:13;340.13;;;23.45;;
54575;SDS011;40472;53.486;14.542;2022-11-25T03:34:39;552.22;;;34.85;;
54575;SDS011;40472;53.486;14.542;2022-11-25T03:37:05;313.48;;;24.50;;
54575;SDS011;40472;53.486;14.542;2022-11-25T03:39:31;204.95;;;22.38;;
54575;SDS011;40472;53.486;14.542;2022-11-25T03:41:57;252.63;;;23.08;;
54575;SDS011;40472;53.486;14.542;2022-11-25T03:44:23;253.48;;;21.92;;
54575;SDS011;40472;53.486;14.542;2022-11-25T03:46:51;298.58;;;26.48;;
54575;SDS011;40472;53.486;14.542;2022-11-25T03:49:17;264.65;;;23.27;;
54575;SDS011;40472;53.486;14.542;2022-11-25T03:51:45;385.15;;;29.35;;
54575;SDS011;40472;53.486;14.542;2022-11-25T03:54:11;171.35;;;20.65;;
54575;SDS011;40472;53.486;14.542;2022-11-25T03:56:37;356.05;;;28.00;;
54575;SDS011;40472;53.486;14.542;2022-11-25T03:59:03;386.92;;;29.38;;
54575;SDS011;40472;53.486;14.542;2022-11-25T04:01:29;271.10;;;25.73;;
54575;SDS011;40472;53.486;14.542;2022-11-25T04:03:57;205.77;;;23.67;;
54575;SDS011;40472;53.486;14.542;2022-11-25T04:06:23;423.65;;;31.40;;
54575;SDS011;40472;53.486;14.542;2022-11-25T04:08:49;305.17;;;28.30;;
54575;SDS011;40472;53.486;14.542;2022-11-25T04:11:15;293.20;;;24.73;;
54575;SDS011;40472;53.486;14.542;2022-11-25T04:13:41;252.50;;;25.65;;
54575;SDS011;40472;53.486;14.542;2022-11-25T04:16:14;271.10;;;26.52;;
54575;SDS011;40472;53.486;14.542;2022-11-25T04:18:48;388.52;;;31.48;;
54575;SDS011;40472;53.486;14.542;2022-11-25T04:21:14;236.23;;;23.52;;
54575;SDS011;40472;53.486;14.542;2022-11-25T04:23:40;243.40;;;24.67;;
54575;SDS011;40472;53.486;14.542;2022-11-25T04:26:06;167.15;;;21.58;;
54575;SDS011;40472;53.486;14.542;2022-11-25T04:28:32;315.30;;;25.85;;
54575;SDS011;40472;53.486;14.542;2022-11-25T04:30:57;270.23;;;26.10;;
54575;SDS011;40472;53.486;14.542;2022-11-25T04:33:23;297.35;;;27.85;;
54575;SDS011;40472;53.486;14.542;2022-11-25T04:35:49;326.40;;;24.92;;
54575;SDS011;40472;53.486;14.542;2022-11-25T04:38:15;190.77;;;20.73;;
54575;SDS011;40472;53.486;14.542;2022-11-25T04:40:41;199.13;;;20.45;;
54575;SDS011;40472;53.486;14.542;2022-11-25T04:43:08;239.38;;;23.65;;
54575;SDS011;40472;53.486;14.542;2022-11-25T04:45:34;405.40;;;28.27;;
54575;SDS011;40472;53.486;14.542;2022-11-25T04:47:59;270.48;;;22.88;;
54575;SDS011;40472;53.486;14.542;2022-11-25T04:50:27;278.83;;;26.23;;
54575;SDS011;40472;53.486;14.542;2022-11-25T04:52:53;348.85;;;27.02;;
54575;SDS011;40472;53.486;14.542;2022-11-25T04:55:22;284.52;;;24.52;;
54575;SDS011;40472;53.486;14.542;2022-11-25T04:57:48;310.20;;;26.77;;
54575;SDS011;40472;53.486;14.542;2022-11-25T05:00:14;238.63;;;25.23;;
54575;SDS011;40472;53.486;14.542;2022-11-25T05:02:43;321.63;;;27.23;;
54575;SDS011;40472;53.486;14.542;2022-11-25T05:05:09;249.70;;;23.30;;
54575;SDS011;40472;53.486;14.542;2022-11-25T05:07:35;150.13;;;20.00;;
54575;SDS011;40472;53.486;14.542;2022-11-25T05:10:01;248.68;;;21.85;;
54575;SDS011;40472;53.486;14.542;2022-11-25T05:12:27;316.00;;;25.13;;
54575;SDS011;40472;53.486;14.542;2022-11-25T05:14:54;177.27;;;18.10;;
54575;SDS011;40472;53.486;14.542;2022-11-25T05:17:21;193.10;;;20.40;;
54575;SDS011;40472;53.486;14.542;2022-11-25T05:19:50;148.18;;;16.85;;
54575;SDS011;40472;53.486;14.542;2022-11-25T05:22:17;379.58;;;26.23;;
54575;SDS011;40472;53.486;14.542;2022-11-25T05:24:47;135.30;;;17.55;;
54575;SDS011;40472;53.486;14.542;2022-11-25T05:27:14;261.58;;;20.05;;
54575;SDS011;40472;53.486;14.542;2022-11-25T05:29:43;132.15;;;18.40;;
54575;SDS011;40472;53.486;14.542;2022-11-25T05:32:09;343.58;;;25.15;;
54575;SDS011;40472;53.486;14.542;2022-11-25T05:34:35;102.75;;;15.20;;
54575;SDS011;40472;53.486;14.542;2022-11-25T05:37:02;234.20;;;20.80;;
54575;SDS011;40472;53.486;14.542;2022-11-25T05:39:31;139.18;;;15.50;;
54575;SDS011;40472;53.486;14.542;2022-11-25T05:41:57;251.02;;;20.08;;
54575;SDS011;40472;53.486;14.542;2022-11-25T05:44:25;102.53;;;15.00;;
54575;SDS011;40472;53.486;14.542;2022-11-25T05:46:51;224.18;;;19.92;;
54575;SDS011;40472;53.486;14.542;2022-11-25T05:49:17;198.32;;;17.35;;
54575;SDS011;40472;53.486;14.542;2022-11-25T05:51:45;387.73;;;24.90;;
54575;SDS011;40472;53.486;14.542;2022-11-25T05:54:11;180.98;;;18.52;;
54575;SDS011;40472;53.486;14.542;2022-11-25T05:56:37;205.43;;;17.13;;
54575;SDS011;40472;53.486;14.542;2022-11-25T05:59:04;152.90;;;17.20;;
54575;SDS011;40472;53.486;14.542;2022-11-25T06:01:31;152.32;;;18.48;;
54575;SDS011;40472;53.486;14.542;2022-11-25T06:04:01;183.95;;;16.20;;
54575;SDS011;40472;53.486;14.542;2022-11-25T06:06:28;222.60;;;18.58;;
54575;SDS011;40472;53.486;14.542;2022-11-25T06:08:54;191.10;;;18.95;;
54575;SDS011;40472;53.486;14.542;2022-11-25T06:11:20;157.80;;;16.65;;
54575;SDS011;40472;53.486;14.542;2022-11-25T06:13:46;262.67;;;21.58;;
54575;SDS011;40472;53.486;14.542;2022-11-25T06:16:13;320.42;;;24.38;;
54575;SDS011;40472;53.486;14.542;2022-11-25T06:18:41;184.30;;;18.25;;
54575;SDS011;40472;53.486;14.542;2022-11-25T06:21:07;195.05;;;17.15;;
54575;SDS011;40472;53.486;14.542;2022-11-25T06:23:36;269.65;;;22.17;;
54575;SDS011;40472;53.486;14.542;2022-11-25T06:26:06;291.70;;;22.27;;
54575;SDS011;40472;53.486;14.542;2022-11-25T06:28:35;194.88;;;18.35;;
54575;SDS011;40472;53.486;14.542;2022-11-25T06:31:09;269.35;;;22.63;;
54575;SDS011;40472;53.486;14.542;2022-11-25T06:33:38;385.42;;;26.73;;
54575;SDS011;40472;53.486;14.542;2022-11-25T06:36:04;407.58;;;29.02;;
54575;SDS011;40472;53.486;14.542;2022-11-25T06:38:32;436.65;;;31.23;;
54575;SDS011;40472;53.486;14.542;2022-11-25T06:40:59;255.98;;;21.65;;
54575;SDS011;40472;53.486;14.542;2022-11-25T06:43:30;221.00;;;18.67;;
54575;SDS011;40472;53.486;14.542;2022-11-25T06:46:09;313.08;;;21.88;;
54575;SDS011;40472;53.486;14.542;2022-11-25T06:48:37;478.35;;;30.85;;
54575;SDS011;40472;53.486;14.542;2022-11-25T06:51:11;403.00;;;27.25;;
54575;SDS011;40472;53.486;14.542;2022-11-25T06:53:38;346.17;;;24.00;;
54575;SDS011;40472;53.486;14.542;2022-11-25T06:56:07;219.55;;;17.35;;
54575;SDS011;40472;53.486;14.542;2022-11-25T06:58:36;309.58;;;23.90;;
54575;SDS011;40472;53.486;14.542;2022-11-25T07:03:30;235.80;;;20.33;;
54575;SDS011;40472;53.486;14.542;2022-11-25T07:05:56;424.17;;;27.08;;
54575;SDS011;40472;53.486;14.542;2022-11-25T07:08:23;303.45;;;22.42;;
54575;SDS011;40472;53.486;14.542;2022-11-25T07:10:50;240.52;;;20.42;;
54575;SDS011;40472;53.486;14.542;2022-11-25T07:13:16;425.77;;;29.13;;
54575;SDS011;40472;53.486;14.542;2022-11-25T07:15:42;300.48;;;23.63;;
54575;SDS011;40472;53.486;14.542;2022-11-25T07:18:11;291.15;;;23.05;;
54575;SDS011;40472;53.486;14.542;2022-11-25T07:20:37;292.05;;;22.52;;
54575;SDS011;40472;53.486;14.542;2022-11-25T07:23:03;345.02;;;23.20;;
54575;SDS011;40472;53.486;14.542;2022-11-25T07:25:29;431.63;;;28.55;;
54575;SDS011;40472;53.486;14.542;2022-11-25T07:27:58;159.07;;;18.77;;
54575;SDS011;40472;53.486;14.542;2022-11-25T07:30:24;224.30;;;20.75;;
54575;SDS011;40472;53.486;14.542;2022-11-25T07:32:50;247.75;;;20.45;;
54575;SDS011;40472;53.486;14.542;2022-11-25T07:35:15;390.13;;;27.02;;
54575;SDS011;40472;53.486;14.542;2022-11-25T07:37:41;148.55;;;17.08;;
54575;SDS011;40472;53.486;14.542;2022-11-25T07:40:07;210.13;;;21.13;;
54575;SDS011;40472;53.486;14.542;2022-11-25T07:42:33;361.13;;;25.58;;
54575;SDS011;40472;53.486;14.542;2022-11-25T07:45:02;300.85;;;23.95;;
54575;SDS011;40472;53.486;14.542;2022-11-25T07:47:28;213.48;;;19.63;;
54575;SDS011;40472;53.486;14.542;2022-11-25T07:49:54;275.50;;;22.73;;
54575;SDS011;40472;53.486;14.542;2022-11-25T07:52:22;198.20;;;19.95;;
54575;SDS011;40472;53.486;14.542;2022-11-25T07:54:47;278.58;;;24.55;;
54575;SDS011;40472;53.486;14.542;2022-11-25T07:57:13;427.92;;;30.38;;
54575;SDS011;40472;53.486;14.542;2022-11-25T07:59:39;353.08;;;25.13;;
54575;SDS011;40472;53.486;14.542;2022-11-25T08:02:05;315.42;;;26.08;;
54575;SDS011;40472;53.486;14.542;2022-11-25T08:04:33;197.30;;;20.23;;
54575;SDS011;40472;53.486;14.542;2022-11-25T08:07:01;143.48;;;20.73;;
54575;SDS011;40472;53.486;14.542;2022-11-25T08:09:27;383.63;;;29.27;;
54575;SDS011;40472;53.486;14.542;2022-11-25T08:11:53;284.20;;;23.45;;
54575;SDS011;40472;53.486;14.542;2022-11-25T08:14:21;224.55;;;22.20;;
54575;SDS011;40472;53.486;14.542;2022-11-25T08:16:47;171.55;;;20.05;;
54575;SDS011;40472;53.486;14.542;2022-11-25T08:19:14;172.75;;;20.77;;
54575;SDS011;40472;53.486;14.542;2022-11-25T08:21:44;118.10;;;19.80;;
54575;SDS011;40472;53.486;14.542;2022-11-25T08:24:17;318.80;;;26.20;;
54575;SDS011;40472;53.486;14.542;2022-11-25T08:26:45;175.40;;;19.67;;
54575;SDS011;40472;53.486;14.542;2022-11-25T08:29:12;174.95;;;20.10;;
54575;SDS011;40472;53.486;14.542;2022-11-25T08:31:39;188.75;;;21.38;;
54575;SDS011;40472;53.486;14.542;2022-11-25T08:34:05;130.23;;;17.60;;
54575;SDS011;40472;53.486;14.542;2022-11-25T08:36:32;203.02;;;21.50;;
54575;SDS011;40472;53.486;14.542;2022-11-25T08:38:59;133.68;;;19.48;;
54575;SDS011;40472;53.486;14.542;2022-11-25T08:41:32;209.63;;;21.67;;
54575;SDS011;40472;53.486;14.542;2022-11-25T08:44:00;189.50;;;22.27;;
54575;SDS011;40472;53.486;14.542;2022-11-25T08:46:30;228.38;;;23.00;;
54575;SDS011;40472;53.486;14.542;2022-11-25T08:49:00;304.92;;;24.58;;
54575;SDS011;40472;53.486;14.542;2022-11-25T08:51:30;273.67;;;23.95;;
54575;SDS011;40472;53.486;14.542;2022-11-25T08:53:58;206.52;;;23.27;;
54575;SDS011;40472;53.486;14.542;2022-11-25T08:56:24;312.08;;;25.63;;
54575;SDS011;40472;53.486;14.542;2022-11-25T08:58:50;254.63;;;22.52;;
54575;SDS011;40472;53.486;14.542;2022-11-25T09:01:17;183.20;;;23.02;;
54575;SDS011;40472;53.486;14.542;2022-11-25T09:03:45;230.18;;;24.98;;
54575;SDS011;40472;53.486;14.542;2022-11-25T09:06:13;221.27;;;23.33;;
54575;SDS011;40472;53.486;14.542;2022-11-25T09:08:39;248.05;;;23.00;;
54575;SDS011;40472;53.486;14.542;2022-11-25T09:11:06;114.03;;;19.52;;
54575;SDS011;40472;53.486;14.542;2022-11-25T09:13:33;280.55;;;23.52;;
54575;SDS011;40472;53.486;14.542;2022-11-25T09:15:59;489.17;;;33.88;;
54575;SDS011;40472;53.486;14.542;2022-11-25T09:18:26;193.68;;;21.73;;
54575;SDS011;40472;53.486;14.542;2022-11-25T09:20:54;129.85;;;20.65;;
54575;SDS011;40472;53.486;14.542;2022-11-25T09:23:21;154.80;;;22.08;;
54575;SDS011;40472;53.486;14.542;2022-11-25T09:25:54;217.43;;;24.08;;
54575;SDS011;40472;53.486;14.542;2022-11-25T09:28:22;105.97;;;20.10;;
54575;SDS011;40472;53.486;14.542;2022-11-25T09:30:48;147.45;;;19.92;;
54575;SDS011;40472;53.486;14.542;2022-11-25T09:33:15;208.10;;;24.23;;
54575;SDS011;40472;53.486;14.542;2022-11-25T09:35:41;268.98;;;24.70;;
54575;SDS011;40472;53.486;14.542;2022-11-25T09:38:07;207.80;;;22.05;;
54575;SDS011;40472;53.486;14.542;2022-11-25T09:40:44;129.27;;;21.92;;
54575;SDS011;40472;53.486;14.542;2022-11-25T09:49:32;260.67;;;25.38;;
54575;SDS011;40472;53.486;14.542;2022-11-25T10:00:51;198.73;;;23.07;;
54575;SDS011;40472;53.486;14.542;2022-11-25T10:03:25;160.35;;;23.90;;
54575;SDS011;40472;53.486;14.542;2022-11-25T10:08:48;156.38;;;21.80;;
54575;SDS011;40472;53.486;14.542;2022-11-25T10:19:25;162.10;;;20.80;;
54575;SDS011;40472;53.486;14.542;2022-11-25T10:22:07;64.28;;;17.25;;
54575;SDS011;40472;53.486;14.542;2022-11-25T10:24:44;99.50;;;20.95;;
54575;SDS011;40472;53.486;14.542;2022-11-25T10:27:14;80.97;;;18.33;;
54575;SDS011;40472;53.486;14.542;2022-11-25T10:29:46;135.00;;;21.40;;
54575;SDS011;40472;53.486;14.542;2022-11-25T10:32:24;94.32;;;21.88;;
54575;SDS011;40472;53.486;14.542;2022-11-25T10:34:59;106.03;;;21.00;;
54575;SDS011;40472;53.486;14.542;2022-11-25T10:37:37;88.05;;;22.77;;
54575;SDS011;40472;53.486;14.542;2022-11-25T10:40:12;76.78;;;21.40;;
54575;SDS011;40472;53.486;14.542;2022-11-25T10:42:41;88.43;;;20.95;;
54575;SDS011;40472;53.486;14.542;2022-11-25T10:45:08;64.85;;;18.10;;
54575;SDS011;40472;53.486;14.542;2022-11-25T10:47:46;115.93;;;22.65;;
54575;SDS011;40472;53.486;14.542;2022-11-25T10:53:19;110.40;;;22.13;;
54575;SDS011;40472;53.486;14.542;2022-11-25T10:56:09;68.80;;;19.75;;
54575;SDS011;40472;53.486;14.542;2022-11-25T10:58:40;95.53;;;22.08;;
54575;SDS011;40472;53.486;14.542;2022-11-25T11:01:19;90.03;;;21.98;;
54575;SDS011;40472;53.486;14.542;2022-11-25T11:03:51;80.93;;;21.20;;
54575;SDS011;40472;53.486;14.542;2022-11-25T11:06:35;74.80;;;19.67;;
54575;SDS011;40472;53.486;14.542;2022-11-25T11:09:05;74.00;;;21.20;;
54575;SDS011;40472;53.486;14.542;2022-11-25T11:11:50;101.22;;;23.05;;
54575;SDS011;40472;53.486;14.542;2022-11-25T11:14:18;84.10;;;19.50;;
54575;SDS011;40472;53.486;14.542;2022-11-25T11:16:52;81.10;;;19.98;;
54575;SDS011;40472;53.486;14.542;2022-11-25T11:21:51;156.52;;;21.67;;
54575;SDS011;40472;53.486;14.542;2022-11-25T11:29:33;70.50;;;20.60;;
54575;SDS011;40472;53.486;14.542;2022-11-25T11:32:00;91.60;;;21.88;;
54575;SDS011;40472;53.486;14.542;2022-11-25T11:37:35;66.85;;;16.73;;
54575;SDS011;40472;53.486;14.542;2022-11-25T11:43:10;73.47;;;21.35;;
54575;SDS011;40472;53.486;14.542;2022-11-25T11:50:47;64.70;;;19.63;;
54575;SDS011;40472;53.486;14.542;2022-11-25T11:53:29;64.22;;;19.38;;
54575;SDS011;40472;53.486;14.542;2022-11-25T12:06:55;75.00;;;20.33;;
54575;SDS011;40472;53.486;14.542;2022-11-25T12:09:47;100.10;;;24.08;;
54575;SDS011;40472;53.486;14.542;2022-11-25T12:12:39;108.82;;;23.08;;
54575;SDS011;40472;53.486;14.542;2022-11-25T12:15:19;96.97;;;23.02;;
54575;SDS011;40472;53.486;14.542;2022-11-25T12:17:59;91.07;;;23.33;;
54575;SDS011;40472;53.486;14.542;2022-11-25T12:20:35;98.13;;;23.85;;
54575;SDS011;40472;53.486;14.542;2022-11-25T12:25:45;112.50;;;25.80;;
54575;SDS011;40472;53.486;14.542;2022-11-25T12:28:28;165.90;;;25.50;;
54575;SDS011;40472;53.486;14.542;2022-11-25T12:36:35;110.28;;;24.77;;
54575;SDS011;40472;53.486;14.542;2022-11-25T12:39:04;215.13;;;29.55;;
54575;SDS011;40472;53.486;14.542;2022-11-25T12:41:54;110.18;;;20.67;;
54575;SDS011;40472;53.486;14.542;2022-11-25T12:47:01;80.03;;;20.05;;
54575;SDS011;40472;53.486;14.542;2022-11-25T13:10:52;116.70;;;21.92;;
54575;SDS011;40472;53.486;14.542;2022-11-25T13:14:00;91.50;;;21.15;;
54575;SDS011;40472;53.486;14.542;2022-11-25T13:16:27;135.20;;;22.35;;
54575;SDS011;40472;53.486;14.542;2022-11-25T13:18:53;128.43;;;22.23;;
54575;SDS011;40472;53.486;14.542;2022-11-25T13:21:20;188.95;;;25.58;;
54575;SDS011;40472;53.486;14.542;2022-11-25T13:23:52;207.70;;;26.30;;
54575;SDS011;40472;53.486;14.542;2022-11-25T13:36:56;75.65;;;18.80;;
54575;SDS011;40472;53.486;14.542;2022-11-25T13:39:36;240.27;;;25.17;;
54575;SDS011;40472;53.486;14.542;2022-11-25T13:42:13;136.40;;;22.92;;
54575;SDS011;40472;53.486;14.542;2022-11-25T13:44:57;224.27;;;24.60;;
54575;SDS011;40472;53.486;14.542;2022-11-25T13:50:06;223.38;;;26.88;;
54575;SDS011;40472;53.486;14.542;2022-11-25T13:52:48;123.55;;;21.85;;
54575;SDS011;40472;53.486;14.542;2022-11-25T13:55:37;172.48;;;24.85;;
54575;SDS011;40472;53.486;14.542;2022-11-25T13:58:13;224.80;;;24.42;;
54575;SDS011;40472;53.486;14.542;2022-11-25T14:17:18;146.00;;;23.98;;
54575;SDS011;40472;53.486;14.542;2022-11-25T14:24:47;84.93;;;20.05;;
54575;SDS011;40472;53.486;14.542;2022-11-25T14:27:16;169.15;;;26.58;;
54575;SDS011;40472;53.486;14.542;2022-11-25T14:30:05;113.82;;;20.08;;
54575;SDS011;40472;53.486;14.542;2022-11-25T14:37:46;176.57;;;27.13;;
54575;SDS011;40472;53.486;14.542;2022-11-25T14:40:15;120.13;;;23.85;;
54575;SDS011;40472;53.486;14.542;2022-11-25T14:42:48;86.72;;;21.23;;
54575;SDS011;40472;53.486;14.542;2022-11-25T14:45:27;82.82;;;23.00;;
54575;SDS011;40472;53.486;14.542;2022-11-25T14:47:55;107.18;;;22.50;;
54575;SDS011;40472;53.486;14.542;2022-11-25T14:50:21;97.53;;;22.70;;
54575;SDS011;40472;53.486;14.542;2022-11-25T14:52:47;124.00;;;26.67;;
54575;SDS011;40472;53.486;14.542;2022-11-25T14:55:27;96.43;;;22.25;;
54575;SDS011;40472;53.486;14.542;2022-11-25T14:57:55;113.90;;;25.05;;
54575;SDS011;40472;53.486;14.542;2022-11-25T15:00:21;103.78;;;23.95;;
54575;SDS011;40472;53.486;14.542;2022-11-25T15:02:54;246.20;;;29.60;;
54575;SDS011;40472;53.486;14.542;2022-11-25T15:05:34;197.82;;;26.15;;
54575;SDS011;40472;53.486;14.542;2022-11-25T15:16:04;147.07;;;24.98;;
54575;SDS011;40472;53.486;14.542;2022-11-25T15:18:54;228.32;;;31.40;;
54575;SDS011;40472;53.486;14.542;2022-11-25T15:23:59;100.47;;;23.05;;
54575;SDS011;40472;53.486;14.542;2022-11-25T15:26:30;124.82;;;26.15;;
54575;SDS011;40472;53.486;14.542;2022-11-25T15:29:09;96.90;;;24.35;;
54575;SDS011;40472;53.486;14.542;2022-11-25T15:31:37;96.88;;;25.23;;
54575;SDS011;40472;53.486;14.542;2022-11-25T15:34:06;103.70;;;27.05;;
54575;SDS011;40472;53.486;14.542;2022-11-25T15:36:35;107.95;;;24.88;;
54575;SDS011;40472;53.486;14.542;2022-11-25T15:41:46;146.93;;;29.73;;
54575;SDS011;40472;53.486;14.542;2022-11-25T15:46:54;141.23;;;32.15;;
54575;SDS011;40472;53.486;14.542;2022-11-25T15:49:29;93.15;;;26.27;;
54575;SDS011;40472;53.486;14.542;2022-11-25T15:51:58;114.75;;;28.05;;
54575;SDS011;40472;53.486;14.542;2022-11-25T15:54:37;108.25;;;30.13;;
54575;SDS011;40472;53.486;14.542;2022-11-25T16:02:35;95.53;;;28.53;;
54575;SDS011;40472;53.486;14.542;2022-11-25T16:05:12;107.45;;;29.63;;
54575;SDS011;40472;53.486;14.542;2022-11-25T16:07:39;155.18;;;33.05;;
54575;SDS011;40472;53.486;14.542;2022-11-25T16:18:23;121.03;;;27.65;;
54575;SDS011;40472;53.486;14.542;2022-11-25T16:20:59;156.02;;;27.30;;
54575;SDS011;40472;53.486;14.542;2022-11-25T16:23:28;117.93;;;27.23;;
54575;SDS011;40472;53.486;14.542;2022-11-25T16:26:04;218.10;;;37.65;;
54575;SDS011;40472;53.486;14.542;2022-11-25T16:28:37;162.57;;;33.72;;
54575;SDS011;40472;53.486;14.542;2022-11-25T16:31:04;104.57;;;27.88;;
54575;SDS011;40472;53.486;14.542;2022-11-25T16:33:33;174.50;;;35.15;;
54575;SDS011;40472;53.486;14.542;2022-11-25T16:35:59;128.82;;;30.52;;
54575;SDS011;40472;53.486;14.542;2022-11-25T16:38:25;156.35;;;33.85;;
54575;SDS011;40472;53.486;14.542;2022-11-25T16:40:51;189.30;;;35.95;;
54575;SDS011;40472;53.486;14.542;2022-11-25T16:43:21;94.63;;;27.50;;
54575;SDS011;40472;53.486;14.542;2022-11-25T16:45:52;127.03;;;30.05;;
54575;SDS011;40472;53.486;14.542;2022-11-25T16:48:20;91.43;;;27.05;;
54575;SDS011;40472;53.486;14.542;2022-11-25T16:50:47;129.48;;;29.20;;
54575;SDS011;40472;53.486;14.542;2022-11-25T16:53:14;134.23;;;29.98;;
54575;SDS011;40472;53.486;14.542;2022-11-25T16:55:41;113.10;;;29.17;;
54575;SDS011;40472;53.486;14.542;2022-11-25T16:58:15;196.90;;;36.20;;
54575;SDS011;40472;53.486;14.542;2022-11-25T17:00:47;201.65;;;31.48;;
54575;SDS011;40472;53.486;14.542;2022-11-25T17:03:15;189.38;;;30.52;;
54575;SDS011;40472;53.486;14.542;2022-11-25T17:05:42;130.07;;;27.02;;